Latest Weather Observations for Warruwi

IDD60801

Issued at 10:05 pm CST Saturday 25 October 2014 (issued every 30 minutes, with the page automatically refreshed every 10 minutes)

About weather observations | Map of weather stations | Latest weather observations for NT | Other Formats
Station Details ID: 014401 Name: WARRUWI AIRPORT Lat: -11.65 Lon: 133.38 Height: 19.2 m
Data from the previous 72 hours. | See also: Recent months at Warruwi
Date/Time
CST
Temp
°C
App
Temp
°C
Dew
Point
Rel
Hum
%
Delta-T
°C
Wind Press
QNH
hPa
Press
MSL
hPa
Rain
since 9 am
mm
Dir
 
Spd
km/h
Gust
km/h
Spd
kts
Gust
kts
25/10:00pm 26.9 30.5 22.1 75 3.2 ENE 6 11 3 6 1014.6 1014.4 0.0
25/09:30pm 26.9 30.2 21.9 74 3.3 ENE 7 13 4 7 1014.1 1013.9 0.0
25/09:00pm 27.0 30.4 21.7 73 3.5 NE 6 11 3 6 1013.7 1013.5 0.0
25/08:30pm 27.0 30.1 21.5 72 3.7 NE 7 11 4 6 1013.4 1013.2 0.0
25/08:00pm 27.1 30.4 21.4 71 3.8 NE 6 11 3 6 1013.1 1012.9 0.0
25/07:30pm 27.2 30.3 21.0 69 4.1 NE 6 11 3 6 1012.8 1012.6 0.0
25/07:00pm 27.3 29.7 20.9 68 4.2 NE 9 17 5 9 1012.6 1012.4 0.0
25/06:30pm 27.6 29.6 20.7 66 4.6 NE 11 20 6 11 1012.3 1012.1 0.0
25/06:00pm 28.0 29.4 20.3 63 5.1 NE 13 22 7 12 1012.1 1011.9 0.0
25/05:30pm 28.5 29.8 20.2 60 5.5 NE 13 24 7 13 1012.0 1011.8 0.0
25/05:00pm 29.0 29.4 19.9 58 6.0 NE 17 30 9 16 1011.8 1011.6 0.0
25/04:30pm 30.1 30.6 20.1 55 6.6 ENE 17 30 9 16 1011.9 1011.7 0.0
25/04:00pm 30.3 30.6 19.6 52 7.0 ENE 17 30 9 16 1012.1 1011.9 0.0
25/03:30pm 31.0 29.9 15.4 38 9.6 ENE 15 28 8 15 1012.4 1012.2 0.0
25/03:00pm 30.5 30.0 19.2 51 7.4 E 20 33 11 18 1012.6 1012.4 0.0
25/02:30pm 30.5 29.7 19.2 51 7.4 E 22 32 12 17 1012.9 1012.7 0.0
25/02:00pm 30.3 29.9 19.3 51 7.2 ENE 20 30 11 16 1013.2 1013.0 0.0
25/01:30pm 30.7 30.5 20.6 54 6.7 E 22 32 12 17 1013.6 1013.4 0.0
25/01:00pm 30.1 30.2 20.4 56 6.4 E 20 33 11 18 1013.9 1013.7 0.0
25/12:30pm 30.4 30.6 20.6 55 6.5 E 20 32 11 17 1014.3 1014.1 0.0
25/12:00pm 30.2 30.9 20.4 55 6.5 E 17 28 9 15 1014.8 1014.6 0.0
25/11:30am 30.4 30.6 19.4 51 7.2 E 17 26 9 14 1015.3 1015.1 0.0
25/11:00am 29.2 30.1 20.9 61 5.5 ESE 17 24 9 13 1015.5 1015.3 0.0
25/10:30am 29.0 29.6 21.0 62 5.3 E 19 26 10 14 1015.5 1015.3 0.0
25/10:00am 28.7 29.3 21.0 63 5.1 E 19 26 10 14 1015.8 1015.6 0.0
25/09:30am 28.1 28.6 20.9 65 4.8 E 19 24 10 13 1015.7 1015.5 0.0
25/09:00am 27.8 28.1 20.4 64 4.9 E 19 26 10 14 1016.0 1015.8 0.0
25/08:30am 27.7 28.2 20.0 63 5.0 ESE 17 22 9 12 1015.9 1015.7 0.0
25/08:00am 27.3 28.5 19.9 64 4.8 ESE 13 17 7 9 1015.7 1015.5 0.0
25/07:30am 26.4 27.3 19.3 65 4.6 SE 13 19 7 10 1015.3 1015.1 0.0
25/07:00am 26.0 27.3 19.4 67 4.3 SE 11 17 6 9 1014.8 1014.6 0.0
25/06:30am 25.7 26.9 19.8 70 3.8 SE 13 20 7 11 1014.6 1014.4 0.0
25/06:00am 25.4 26.8 20.4 74 3.3 SE 13 19 7 10 1014.2 1014.0 0.0
25/05:30am 25.4 27.2 21.1 77 2.8 SE 13 19 7 10 1013.7 1013.5 0.0
25/05:00am 26.1 27.4 21.7 77 2.9 SE 17 22 9 12 1013.4 1013.2 0.0
25/04:30am 26.6 27.2 21.4 73 3.5 ESE 20 30 11 16 1013.0 1012.8 0.0
25/04:00am 26.6 27.2 21.4 73 3.5 E 20 28 11 15 1012.8 1012.6 0.0
25/03:30am 26.6 27.5 21.6 74 3.3 E 19 33 10 18 1012.5 1012.3 0.0
25/03:00am 26.6 27.1 20.9 71 3.8 E 19 30 10 16 1012.7 1012.5 0.0
25/02:30am 26.8 27.3 20.9 70 3.9 E 19 26 10 14 1013.0 1012.8 0.0
25/02:00am 26.8 27.5 21.6 73 3.5 E 20 32 11 17 1013.4 1013.2 0.0
25/01:30am 27.0 27.6 21.3 71 3.8 E 20 35 11 19 1013.7 1013.5 0.0
25/01:00am 27.0 28.3 21.7 73 3.5 E 17 28 9 15 1013.8 1013.6 0.0
25/12:30am 27.1 28.3 22.1 74 3.4 ENE 19 32 10 17 1013.9 1013.7 0.0
25/12:00am 27.3 28.4 22.0 73 3.6 E 19 32 10 17 1014.6 1014.4 0.0
 
Date/Time
CST
Temp
°C
App
Temp
°C
Dew
Point
Rel
Hum
%
Delta-T
°C
Wind Press
QNH
hPa
Press
MSL
hPa
Rain
since 9 am
mm
Dir
 
Spd
km/h
Gust
km/h
Spd
kts
Gust
kts
24/11:30pm 27.3 28.6 22.3 74 3.4 E 19 26 10 14 1014.6 1014.4 0.0
24/11:00pm 27.2 28.9 22.4 75 3.2 E 17 24 9 13 1014.6 1014.4 0.0
24/10:30pm 27.1 29.4 21.4 71 3.8 ENE 11 22 6 12 1014.4 1014.2 0.0
24/10:00pm 27.1 29.3 21.8 73 3.5 ENE 13 24 7 13 1013.8 1013.6 0.0
24/09:30pm 27.2 29.6 22.2 74 3.4 ENE 13 28 7 15 1013.4 1013.2 0.0
24/09:00pm 27.3 30.1 22.3 74 3.4 ENE 11 20 6 11 1013.1 1012.9 0.0
24/08:30pm 27.3 30.2 21.8 72 3.7 NE 9 20 5 11 1012.5 1012.3 0.0
24/08:00pm 27.4 30.6 21.7 71 3.8 NE 7 15 4 8 1012.0 1011.8 0.0
24/07:30pm 27.6 30.3 21.4 69 4.1 NE 9 17 5 9 1011.7 1011.5 0.0
24/07:00pm 27.7 30.1 20.8 66 4.6 NE 9 19 5 10 1011.3 1011.1 0.0
24/06:30pm 27.8 29.7 20.6 65 4.8 ENE 11 22 6 12 1011.1 1010.9 0.0
24/06:00pm 28.2 29.8 20.7 63 5.0 NE 13 26 7 14 1010.9 1010.7 0.0
24/05:30pm 28.6 29.5 20.9 63 5.1 NE 17 30 9 16 1010.8 1010.6 0.0
24/05:00pm 29.3 30.3 21.0 61 5.5 ENE 17 30 9 16 1010.7 1010.5 0.0
24/04:30pm 29.5 30.2 20.4 58 6.0 ENE 17 30 9 16 1010.7 1010.5 0.0
24/04:00pm 29.9 30.5 21.3 60 5.8 ENE 20 32 11 17 1010.8 1010.6 0.0
24/03:30pm 30.5 31.5 21.0 57 6.4 ENE 17 33 9 18 1011.1 1010.9 0.0
24/03:00pm 30.5 30.8 19.5 51 7.2 ENE 17 26 9 14 1011.4 1011.2 0.0
24/02:30pm 30.6 30.9 20.8 56 6.5 E 20 32 11 17 1011.6 1011.4 0.0
24/02:00pm 30.4 30.9 21.2 58 6.2 ENE 20 33 11 18 1012.0 1011.8 0.0
24/01:30pm 30.7 31.2 21.2 57 6.4 E 20 30 11 16 1012.4 1012.2 0.0
24/01:00pm 30.3 30.0 21.1 58 6.2 E 24 32 13 17 1013.0 1012.8 0.0
24/12:30pm 30.5 30.1 21.0 57 6.3 E 24 37 13 20 1013.7 1013.5 0.0
24/12:00pm 30.5 30.7 21.3 58 6.2 E 22 37 12 20 1014.0 1013.8 0.0
24/11:30am 30.1 30.4 21.5 60 5.8 E 22 32 12 17 1014.4 1014.2 0.0
24/11:00am 30.1 30.4 21.5 60 5.8 E 22 32 12 17 1014.6 1014.4 0.0
24/10:30am 29.9 31.2 22.3 63 5.2 E 19 32 10 17 1014.9 1014.7 0.0
24/10:00am 29.3 30.9 22.8 68 4.4 E 19 24 10 13 1015.0 1014.8 0.0
24/09:30am 28.9 30.9 22.2 67 4.5 E 15 20 8 11 1015.1 1014.9 0.0
24/09:00am 28.4 31.1 22.2 69 4.2 SE 11 17 6 9 1015.0 1014.8 0.0
24/08:30am 27.8 30.2 22.3 72 3.7 SE 13 19 7 10 1014.7 1014.5 0.0
24/08:00am 27.1 29.5 22.3 75 3.2 SE 13 17 7 9 1014.7 1014.5 0.0
24/07:30am 26.3 29.0 22.2 78 2.8 SSE 11 15 6 8 1014.4 1014.2 0.0
24/07:00am 25.9 28.8 22.4 81 2.4 SSE 11 17 6 9 1014.2 1014.0 0.0
24/06:30am 25.9 28.9 22.6 82 2.2 SSE 11 15 6 8 1013.9 1013.7 0.0
24/06:00am 27.0 29.3 22.0 74 3.4 E 13 20 7 11 1013.3 1013.1 0.0
24/05:30am 26.9 29.5 21.9 74 3.3 E 11 19 6 10 1012.7 1012.5 0.0
24/05:00am 26.9 28.7 21.9 74 3.3 E 15 22 8 12 1012.5 1012.3 0.0
24/04:30am 27.1 29.0 22.1 74 3.4 E 15 22 8 12 1012.4 1012.2 0.0
24/04:00am 27.1 29.0 22.1 74 3.4 E 15 22 8 12 1012.2 1012.0 0.0
24/03:30am 27.0 28.7 22.4 76 3.1 E 17 28 9 15 1012.3 1012.1 0.0
24/03:00am 26.9 29.0 22.5 77 3.0 E 15 24 8 13 1012.2 1012.0 0.0
24/02:30am 27.1 29.0 22.7 77 3.0 E 17 22 9 12 1012.5 1012.3 0.0
24/02:00am 26.9 29.4 22.5 77 3.0 E 13 22 7 12 1012.9 1012.7 0.0
24/01:30am 26.9 29.3 22.3 76 3.1 ENE 13 20 7 11 1013.0 1012.8 0.0
24/01:00am 26.9 30.4 22.9 79 2.7 ENE 9 19 5 10 1013.4 1013.2 0.0
24/12:30am 26.9 30.6 23.2 80 2.5 ENE 9 17 5 9 1013.9 1013.7 0.0
24/12:00am 27.0 29.7 22.8 78 2.8 ENE 13 20 7 11 1014.1 1013.9 0.0
 
Date/Time
CST
Temp
°C
App
Temp
°C
Dew
Point
Rel
Hum
%
Delta-T
°C
Wind Press
QNH
hPa
Press
MSL
hPa
Rain
since 9 am
mm
Dir
 
Spd
km/h
Gust
km/h
Spd
kts
Gust
kts
23/11:30pm 27.0 29.6 22.6 77 3.0 ENE 13 22 7 12 1014.2 1014.0 0.0
23/11:00pm 27.2 30.2 22.6 76 3.1 ENE 11 20 6 11 1014.5 1014.3 0.0
23/10:30pm 27.2 29.7 22.4 75 3.2 ENE 13 20 7 11 1014.5 1014.3 0.0
23/10:00pm 27.1 29.6 22.5 76 3.1 ENE 13 20 7 11 1014.2 1014.0 0.0
23/09:30pm 27.2 29.6 22.2 74 3.4 ENE 13 20 7 11 1013.7 1013.5 0.0
23/09:00pm 27.3 30.1 22.3 74 3.4 ENE 11 20 6 11 1013.4 1013.2 0.0
23/08:30pm 27.3 30.5 21.6 71 3.8 ENE 7 15 4 8 1012.7 1012.5 0.0
23/08:00pm 27.4 30.5 21.4 70 4.0 NE 7 17 4 9 1012.3 1012.1 0.0
23/07:30pm 27.4 30.4 21.2 69 4.1 NE 7 15 4 8 1012.0 1011.8 0.0
23/07:00pm 27.5 30.4 21.8 71 3.8 NE 9 15 5 8 1011.8 1011.6 0.0
23/06:30pm 27.8 30.1 21.3 67 4.3 NE 11 19 6 10 1011.5 1011.3 0.0
23/06:00pm 28.3 30.3 20.8 63 5.0 NE 11 24 6 13 1011.1 1010.9 0.0
23/05:30pm 28.4 29.9 21.2 65 4.8 NE 15 24 8 13 1010.9 1010.7 0.0
23/05:00pm 29.2 30.1 20.1 58 6.0 NE 15 26 8 14 1010.5 1010.3 0.0
23/04:30pm 30.1 31.3 20.6 56 6.3 NE 15 26 8 14 1010.4 1010.2 0.0
23/04:00pm 30.4 31.3 20.0 53 6.9 NE 15 26 8 14 1010.6 1010.4 0.0
23/03:30pm 30.5 31.0 19.2 51 7.4 NE 15 24 8 13 1010.8 1010.6 0.0
23/03:00pm 30.8 31.3 19.2 50 7.6 NE 15 28 8 15 1011.1 1010.9 0.0
23/02:30pm 31.4 32.1 19.7 49 7.7 ENE 15 24 8 13 1011.3 1011.1 0.0
23/02:00pm 30.8 31.0 20.1 53 7.1 ENE 19 28 10 15 1011.7 1011.5 0.0
23/01:30pm 31.2 32.4 21.4 56 6.6 E 17 26 9 14 1012.3 1012.1 0.0
23/01:00pm 30.5 31.3 21.3 58 6.2 E 19 30 10 16 1012.8 1012.6 0.0
23/12:30pm 29.7 30.5 21.4 61 5.6 ENE 19 30 10 16 1013.3 1013.1 0.0
23/12:00pm 30.4 31.4 21.8 60 5.8 E 19 30 10 16 1013.9 1013.7 0.0
23/11:30am 30.0 31.1 21.9 62 5.5 E 19 28 10 15 1014.2 1014.0 0.0
23/11:00am 29.4 30.3 21.6 63 5.2 E 19 28 10 15 1014.4 1014.2 0.0
23/10:30am 29.3 29.7 20.7 59 5.7 E 19 24 10 13 1014.5 1014.3 0.0
23/10:00am 29.5 30.3 20.6 58 5.9 ESE 17 22 9 12 1014.9 1014.7 0.0
23/09:30am 28.8 30.9 22.5 68 4.3 ESE 15 24 8 13 1014.9 1014.7 0.0
23/09:00am 28.6 30.7 23.1 72 3.8 ESE 17 24 9 13 1015.0 1014.8 0.0
23/08:30am 27.4 29.3 22.1 73 3.6 SE 15 20 8 11 1015.0 1014.8 0.0
23/08:00am 27.1 29.7 22.7 77 3.0 SE 13 17 7 9 1014.8 1014.6 0.0
23/07:30am 26.3 29.6 22.6 80 2.5 SSE 9 13 5 7 1014.5 1014.3 0.0
23/07:00am 25.9 29.7 22.8 83 2.1 SSE 7 13 4 7 1014.2 1014.0 0.0
23/06:30am 26.8 28.6 21.8 74 3.3 E 15 20 8 11 1013.8 1013.6 0.0
23/06:00am 26.7 28.5 21.9 75 3.2 E 15 20 8 11 1013.5 1013.3 0.0
23/05:30am 26.7 28.4 21.7 74 3.3 E 15 24 8 13 1013.1 1012.9 0.0
23/05:00am 26.8 28.6 21.8 74 3.3 E 15 26 8 14 1012.8 1012.6 0.0
23/04:30am 26.9 28.1 21.4 72 3.7 E 17 26 9 14 1012.5 1012.3 0.0
23/04:00am 26.9 28.3 21.9 74 3.3 E 17 24 9 13 1012.6 1012.4 0.0
23/03:30am 26.9 28.8 22.1 75 3.2 E 15 24 8 13 1012.5 1012.3 0.0
23/03:00am 26.9 28.7 21.9 74 3.4 E 15 22 8 12 1012.5 1012.3 0.0
23/02:30am 27.1 29.2 22.5 76 3.1 ENE 15 24 8 13 1012.7 1012.5 0.0
23/02:00am 27.1 29.1 22.3 75 3.2 E 15 26 8 14 1013.2 1013.0 0.0
23/01:30am 27.2 28.9 22.4 75 3.2 E 17 28 9 15 1013.6 1013.4 0.0
23/01:00am 27.2 29.3 22.4 75 3.2 E 15 24 8 13 1013.8 1013.6 0.0
23/12:30am 27.1 29.5 22.3 75 3.2 E 13 20 7 11 1014.0 1013.8 0.0
23/12:00am 27.2 29.2 22.2 74 3.4 E 15 22 8 12 1014.2 1014.0 0.0
 
Date/Time
CST
Temp
°C
App
Temp
°C
Dew
Point
Rel
Hum
%
Delta-T
°C
Wind Press
QNH
hPa
Press
MSL
hPa
Rain
since 9 am
mm
Dir
 
Spd
km/h
Gust
km/h
Spd
kts
Gust
kts
22/11:30pm 27.3 28.8 22.0 73 3.6 E 17 28 9 15 1014.2 1014.0 0.0
22/11:00pm 27.4 28.6 21.4 70 4.0 E 17 28 9 15 1014.3 1014.1 0.0
22/10:30pm 27.4 30.0 21.9 72 3.7 E 11 20 6 11 1014.3 1014.1 0.0

Other Formats:

Comma delimited format used in spreadsheet applications
http://www.bom.gov.au/fwo/IDD60801/IDD60801.94139.axf

JavaScript Object Notation format (JSON) in row-major order
http://www.bom.gov.au/fwo/IDD60801/IDD60801.94139.json